Date,TemperatureHighF,TemperatureAvgF,TemperatureLowF,DewpointHighF,DewpointAvgF,DewpointLowF,HumidityHigh,HumidityAvg,HumidityLow,PressureMaxIn,PressureMinIn,WindSpeedMaxMPH,WindSpeedAvgMPH,GustSpeedMaxMPH,PrecipitationSumIn
2013-1-1,46,40,34,45,37,25,97,88,64,30.17,29.97,6,0,10,0.35
2013-1-2,42,36,33,41,34,31,97,92,86,30.16,29.95,10,1,23,0.11
2013-1-3,36,32,27,34,29,21,96,88,76,30.34,30.12,6,1,16,0.01
2013-1-4,37,29,23,26,21,17,88,73,45,30.45,30.34,7,1,17,0.00
2013-1-5,43,33,23,33,22,17,83,65,35,30.46,30.27,4,0,10,0.01
2013-1-6,39,36,32,36,32,29,95,86,73,30.28,30.11,6,1,16,0.02
2013-1-7,48,35,27,30,26,23,87,72,42,30.44,30.27,4,1,12,0.01
2013-1-8,50,38,29,37,31,25,87,77,54,30.46,30.36,3,1,6,0.00
2013-1-9,53,46,39,51,44,37,96,92,87,30.48,30.40,2,0,6,0.00
2013-1-10,62,54,49,53,50,47,95,86,69,30.48,30.26,2,0,8,0.00
2013-1-11,57,51,48,56,50,46,98,96,88,30.27,30.10,3,0,8,0.09
2013-1-12,71,59,54,60,55,50,98,87,62,30.16,30.02,4,1,10,0.02
2013-1-13,68,60,53,54,52,49,94,75,61,30.05,29.95,6,2,18,0.06
2013-1-14,56,52,43,55,50,42,98,96,90,30.16,29.97,7,0,18,2.10
2013-1-15,50,48,43,49,47,42,98,97,95,30.13,29.98,1,0,3,1.41
2013-1-16,52,49,46,51,48,45,98,98,97,30.02,29.91,4,0,8,0.54
2013-1-17,49,40,30,48,38,27,98,94,90,30.25,29.80,8,2,19,1.31
2013-1-18,41,32,26,32,26,20,90,80,53,30.55,30.25,7,2,14,0.16
2013-1-19,47,35,27,35,28,24,90,76,48,30.50,30.21,4,1,6,0.01
2013-1-20,50,41,35,34,29,22,77,63,41,30.22,30.10,7,2,14,0.00
2013-1-21,46,36,26,28,22,12,80,58,39,30.12,30.01,7,2,22,0.00
2013-1-22,28,22,16,13,4,-5,63,46,25,30.32,30.06,10,2,23,0.00
2013-1-23,42,30,22,27,18,4,75,59,46,30.38,30.12,6,1,18,0.00
2013-1-24,41,31,21,31,17,4,75,58,35,30.41,30.06,9,4,29,0.00
2013-1-25,36,24,18,34,18,6,96,79,55,30.43,30.15,3,0,6,0.00
2013-1-26,45,34,29,34,26,15,92,74,29,30.37,30.20,5,1,9,0.04
2013-1-27,40,33,26,31,27,22,91,78,69,30.51,30.36,2,0,6,0.02
2013-1-28,60,44,32,45,38,30,94,79,58,30.45,30.26,7,2,21,0.02
2013-1-29,67,56,46,52,47,41,89,74,54,30.26,29.95,6,1,14,0.01
2013-1-30,63,55,42,58,52,34,96,90,80,29.95,29.43,11,1,26,1.34
2013-1-31,41,32,26,37,21,18,84,63,53,30.04,29.49,7,3,26,0.22
2013-2-1,38,23,16,29,13,4,90,65,42,30.42,29.96,9,3,21,0.01
2013-2-2,35,25,16,31,19,9,95,77,58,30.42,30.10,4,0,10,0.01
2013-2-3,36,32,26,29,25,19,93,77,65,30.11,29.96,9,2,19,0.08
2013-2-4,44,32,21,33,23,16,86,71,50,30.17,30.02,4,1,9,0.02
2013-2-5,53,41,36,37,30,26,78,66,39,30.03,29.93,6,1,11,0.01
2013-2-6,54,44,35,37,28,19,82,59,26,30.22,30.03,7,2,17,0.00
2013-2-7,43,41,39,40,32,25,98,74,54,30.24,30.00,2,0,10,0.27
2013-2-8,46,39,30,43,36,25,97,87,69,30.19,29.91,9,2,25,0.14
2013-2-9,50,36,26,27,23,18,83,63,28,30.36,30.17,5,2,13,0.02
2013-2-10,49,40,36,40,28,22,96,65,34,30.36,30.10,3,1,13,0.42
2013-2-11,55,46,41,50,41,17,97,83,34,30.12,30.01,5,1,12,0.45
2013-2-12,48,42,35,37,28,16,94,61,32,30.14,29.92,5,1,19,0.13
2013-2-13,49,37,33,41,34,28,100,89,71,29.93,29.64,5,1,17,0.23
2013-2-14,50,37,30,31,28,25,84,71,44,30.08,29.92,10,2,18,0.01
2013-2-15,52,39,31,37,31,27,90,76,44,30.11,29.98,6,2,16,0.13
2013-2-16,30,26,20,26,20,10,89,80,65,30.07,29.91,10,2,27,0.13
2013-2-17,29,22,17,15,11,7,76,61,44,30.33,30.06,9,3,30,0.01
2013-2-18,50,35,22,29,21,13,75,59,39,30.41,30.14,4,1,13,0.00
2013-2-19,48,38,31,41,26,14,96,65,37,30.14,29.90,9,3,22,0.08
2013-2-20,42,32,25,16,7,-9,61,38,11,30.20,30.07,7,2,21,0.01
2013-2-21,55,38,25,36,18,9,91,49,18,30.26,30.11,3,0,7,0.17
2013-2-22,39,36,33,36,34,29,95,91,83,30.23,30.09,2,0,5,0.39
2013-2-23,49,44,37,48,42,36,97,94,83,30.10,29.85,4,0,10,0.20
2013-2-24,51,41,33,39,30,21,91,67,33,30.07,29.88,7,2,17,0.01
2013-2-25,44,37,32,30,26,24,83,66,49,30.11,30.00,3,1,8,0.00
2013-2-26,42,37,32,39,35,30,96,92,76,30.00,29.55,5,1,12,0.55
2013-2-27,48,40,34,36,32,28,90,75,61,29.81,29.66,7,1,15,0.11
2013-2-28,34,30,28,31,25,22,90,79,72,29.97,29.72,7,2,18,0.11
2013-3-1,33,30,27,27,26,23,90,84,76,30.00,29.94,7,1,18,0.01
2013-3-2,34,28,23,27,24,18,91,83,69,30.02,29.91,6,2,14,0.01
2013-3-3,25,22,19,18,16,14,92,77,67,30.13,29.99,6,2,17,0.00
2013-3-4,47,33,19,29,19,9,80,59,22,30.23,30.10,7,2,17,0.03
2013-3-5,44,38,31,43,34,25,96,85,63,30.11,29.67,9,1,18,1.07
2013-3-6,30,25,22,26,22,19,92,88,82,30.24,29.71,10,5,30,0.62
2013-3-7,38,29,25,30,24,21,92,84,73,30.37,30.24,6,1,15,0.03
2013-3-8,46,33,22,27,22,18,92,68,33,30.42,30.33,8,1,16,0.01
2013-3-9,60,44,31,35,26,18,75,51,26,30.37,30.24,3,1,8,0.00
2013-3-10,62,50,40,35,33,30,72,53,34,30.26,30.10,5,1,12,0.00
2013-3-11,55,50,46,49,44,34,96,83,60,30.12,29.80,4,1,13,0.70
2013-3-12,48,42,35,47,35,29,96,79,52,30.06,29.76,9,3,17,0.73
2013-3-13,39,34,26,30,23,17,85,65,48,30.23,30.03,9,3,22,0.01
2013-3-14,42,30,20,17,13,9,76,51,27,30.36,30.23,8,2,26,0.01
2013-3-15,64,46,29,42,31,12,83,58,25,30.28,29.95,7,1,17,0.00
2013-3-16,72,60,50,47,43,40,71,56,36,29.95,29.72,6,2,14,0.00
2013-3-17,69,59,51,49,44,38,77,59,36,29.90,29.79,8,2,17,0.00
2013-3-18,51,43,39,45,41,37,97,91,80,29.95,29.82,5,0,10,0.90
2013-3-19,50,42,33,44,29,14,97,62,32,30.10,29.86,9,2,21,0.61
2013-3-20,48,37,28,29,15,8,92,44,22,30.12,29.88,6,1,19,0.01
2013-3-21,30,25,18,24,14,10,86,63,45,30.04,29.84,9,2,23,0.03
2013-3-22,42,31,20,26,16,10,74,54,35,30.12,30.04,5,0,12,0.01
2013-3-23,50,42,35,42,35,24,92,77,60,30.09,29.86,4,0,9,0.04
2013-3-24,45,41,36,42,39,34,96,92,78,29.90,29.47,3,0,11,1.15
2013-3-25,36,30,25,35,23,19,96,77,62,29.95,29.52,9,3,25,0.37
2013-3-26,30,27,24,26,23,20,92,84,79,30.28,29.95,7,2,21,0.06
2013-3-27,39,30,26,26,22,19,84,72,54,30.36,30.25,7,3,23,0.03
2013-3-28,45,35,26,26,22,19,82,62,36,30.36,30.29,8,2,21,0.01
2013-3-29,50,37,29,37,29,22,95,73,34,30.37,30.28,7,1,21,0.23
2013-3-30,58,45,35,43,38,34,97,80,42,30.28,30.05,3,1,10,0.45
2013-3-31,59,49,44,51,45,-100,97,90,67,30.05,29.84,2,0,10,0.52
2013-4-1,57,49,38,48,39,32,96,72,51,30.00,29.86,7,2,19,0.16
2013-4-2,51,42,33,33,24,14,69,50,23,30.17,30.00,7,2,15,0.00
2013-4-3,54,43,31,28,21,15,64,43,29,30.27,30.17,6,1,17,0.00
2013-4-4,44,37,32,35,29,20,95,77,39,30.25,29.99,4,0,11,0.67
2013-4-5,52,42,35,40,36,34,97,82,53,30.12,29.98,9,2,15,0.07
2013-4-6,64,50,39,38,35,32,78,57,34,30.23,30.10,5,2,10,0.01
2013-4-7,68,55,45,47,39,34,71,56,31,30.16,30.04,6,2,14,0.00
2013-4-8,73,60,50,50,46,42,82,61,39,30.11,30.00,6,2,15,0.00
2013-4-9,77,64,53,56,52,48,84,65,42,30.15,30.03,6,2,13,0.00
2013-4-10,81,67,55,57,53,50,82,63,41,30.06,29.87,5,2,13,0.00
2013-4-11,74,64,57,59,53,46,95,68,38,29.89,29.64,7,2,16,0.39
2013-4-12,63,56,48,58,49,36,96,77,51,29.87,29.55,9,1,20,0.97
2013-4-13,66,54,45,39,35,25,72,52,24,30.05,29.86,10,2,16,0.02
2013-4-14,67,56,47,47,38,35,88,55,33,30.07,29.93,7,2,18,0.02
2013-4-15,66,55,49,56,51,46,96,86,67,30.16,29.93,5,0,11,0.04
2013-4-16,74,62,52,59,55,50,94,78,55,30.24,30.13,4,1,12,0.01
2013-4-17,68,62,58,61,56,54,91,82,62,30.20,30.07,4,1,11,0.12
2013-4-18,72,63,55,60,55,51,93,75,50,30.07,29.88,6,1,18,0.08
2013-4-19,66,58,40,60,52,32,94,80,69,29.91,29.65,9,2,20,0.57
2013-4-20,52,42,32,32,29,24,77,60,38,30.32,29.91,6,2,19,0.02
2013-4-21,58,47,37,37,31,26,77,56,34,30.45,30.31,4,1,10,0.00
2013-4-22,61,49,38,42,37,34,87,65,42,30.40,30.17,5,1,11,0.00
2013-4-23,69,53,39,46,38,30,73,57,36,30.25,30.06,4,1,11,0.00
2013-4-24,68,56,47,55,47,43,88,73,52,30.10,29.97,7,2,18,0.08
2013-4-25,61,48,38,43,34,22,89,62,24,30.34,30.07,9,2,18,0.04
2013-4-26,64,52,40,43,35,29,71,53,36,30.40,30.29,5,1,9,0.00
2013-4-27,52,49,47,49,46,41,99,87,69,30.35,30.22,1,0,4,0.86
2013-4-28,50,48,44,49,46,-100,97,96,95,30.22,30.00,1,0,4,1.38
2013-4-29,65,55,47,55,51,46,98,86,66,30.06,29.93,3,1,10,0.21
2013-4-30,72,60,51,56,52,49,95,78,46,30.12,29.96,4,1,9,0.00
2013-5-1,63,58,54,54,51,49,90,79,62,30.22,30.11,3,0,8,0.00
2013-5-2,61,55,51,54,51,49,95,87,76,30.25,30.17,4,0,11,0.01
2013-5-3,59,53,50,51,48,46,95,86,64,30.20,30.04,5,0,10,0.01
2013-5-4,52,47,44,48,44,37,95,90,74,30.04,29.96,4,0,12,0.36
2013-5-5,47,46,44,46,45,43,97,96,94,29.98,29.83,5,1,11,2.22
2013-5-6,63,53,47,49,46,41,97,80,46,29.88,29.78,3,0,10,0.85
2013-5-7,63,53,44,49,45,42,93,77,47,29.94,29.85,5,1,18,0.02
2013-5-8,63,54,50,56,51,48,97,89,69,30.04,29.91,3,0,11,0.22
2013-5-9,73,59,50,58,51,48,94,78,43,30.11,30.02,3,1,14,0.09
2013-5-10,73,61,54,59,52,-100,89,76,49,30.09,29.92,4,1,13,0.00
2013-5-11,69,60,54,60,56,50,94,85,63,29.94,29.81,2,0,10,0.16
2013-5-12,56,50,41,50,39,-100,89,68,43,30.09,29.88,7,1,17,0.02
2013-5-13,57,47,38,36,32,27,79,57,32,30.22,30.09,4,0,11,0.00
2013-5-14,72,54,40,50,41,32,81,63,41,30.25,30.07,2,0,6,0.00
2013-5-15,81,67,55,57,52,48,83,60,33,30.10,29.95,6,1,18,0.00
2013-5-16,72,60,58,58,33,-100,84,67,45,30.01,29.93,2,1,7,0.00
2013-5-17,75,64,57,63,52,-100,92,77,57,30.07,29.98,1,0,7,0.02
2013-5-18,66,61,58,63,59,54,97,91,71,30.05,29.99,1,0,5,0.21
2013-5-19,72,63,59,67,61,58,97,94,78,30.07,29.97,0,0,5,0.40
2013-5-20,78,66,59,67,62,58,97,87,64,30.08,29.97,1,0,4,0.05
2013-5-21,78,68,60,69,62,57,95,82,62,30.02,29.89,2,0,7,0.02
2013-5-22,79,66,59,68,61,56,96,85,62,29.96,29.82,3,0,8,0.39
2013-5-23,77,64,58,62,57,52,97,80,44,29.92,29.83,2,0,12,0.37
2013-5-24,61,55,47,52,46,40,93,73,45,30.23,29.91,6,0,16,0.11
2013-5-25,71,55,42,43,39,31,86,59,24,30.33,30.19,3,0,14,0.01
2013-5-26,71,59,52,52,46,41,82,64,42,30.25,30.17,3,0,13,0.00
2013-5-27,76,63,52,61,54,47,86,74,58,30.23,30.09,1,0,5,0.00
2013-5-28,80,67,59,63,57,52,89,73,44,30.16,30.06,3,0,12,0.00
2013-5-29,81,67,57,64,58,54,92,75,44,30.18,30.09,1,0,5,0.00
2013-5-30,79,67,58,64,59,55,93,77,57,30.21,30.10,1,0,7,0.00
2013-5-31,80,68,59,63,59,56,92,76,52,30.16,30.04,3,0,7,0.00
2013-6-1,82,70,62,67,61,57,91,75,42,30.08,29.94,3,0,14,0.02
2013-6-2,65,63,60,63,60,-100,97,96,91,29.99,29.86,0,0,3,0.52
2013-6-3,75,65,58,64,60,57,98,84,58,29.96,29.85,3,0,15,0.03
2013-6-4,79,67,57,66,60,54,93,79,50,30.03,29.93,1,0,5,0.00
2013-6-5,75,67,63,66,63,60,95,86,69,30.03,29.89,0,0,5,0.25
2013-6-6,74,66,59,68,63,58,97,92,78,29.94,29.73,0,0,3,0.27
2013-6-7,77,66,61,67,63,60,97,91,64,29.80,29.65,3,0,7,0.56
2013-6-8,72,64,56,66,61,55,98,90,74,30.08,29.80,2,0,4,0.15
2013-6-9,75,65,59,69,63,56,97,91,75,30.11,29.99,1,0,5,0.50
2013-6-10,75,66,61,65,62,57,98,88,58,30.00,29.86,1,0,8,0.71
2013-6-11,79,68,60,64,61,59,97,81,56,29.99,29.91,2,0,10,0.07
2013-6-12,84,72,62,72,66,59,96,81,62,29.99,29.90,1,0,5,0.00
2013-6-13,86,70,63,71,64,60,96,82,52,29.90,29.67,2,0,14,0.37
2013-6-14,72,63,55,61,56,53,94,77,57,30.04,29.78,2,0,12,0.03
2013-6-15,75,64,55,64,57,52,92,80,55,30.12,30.03,1,0,4,0.00
2013-6-16,77,68,60,68,62,57,91,83,63,30.10,29.98,1,0,4,0.00
2013-6-17,75,68,63,69,65,62,96,91,79,30.01,29.91,0,0,2,0.11
2013-6-18,71,65,61,68,63,58,97,93,83,29.93,29.79,2,0,9,0.13
2013-6-19,76,65,57,65,60,55,95,87,62,30.10,29.91,0,0,3,0.03
2013-6-20,78,66,60,66,61,57,95,85,64,30.18,30.09,0,0,3,0.00
2013-6-22,81,74,64,62,60,56,78,62,45,30.20,30.09,0,0,5,0.00
2013-6-23,77,67,61,69,63,57,96,86,70,30.18,30.09,0,0,4,0.14
2013-6-24,78,66,61,70,65,60,98,94,73,30.19,30.07,0,0,7,0.31
2013-6-25,75,67,62,70,65,61,96,93,77,30.12,29.99,1,0,3,0.51
2013-6-26,82,70,62,71,66,61,97,87,64,30.02,29.88,2,0,7,0.02
2013-6-27,83,70,61,72,66,60,99,87,65,29.91,29.73,1,0,7,0.27
2013-6-28,83,72,66,70,66,62,96,81,51,29.79,29.58,2,0,11,0.13
2013-6-29,79,68,60,65,60,55,96,79,46,29.69,29.59,1,0,7,0.09
2013-6-30,79,68,59,66,61,55,91,79,53,29.77,29.67,1,0,7,0.00
2013-7-1,75,65,59,68,63,58,97,91,74,29.91,29.75,0,0,4,0.49
2013-7-2,80,68,60,70,64,59,98,90,65,30.07,29.91,0,0,3,0.46
2013-7-3,68,64,59,67,62,58,98,96,89,30.19,30.05,1,0,4,1.64
2013-7-4,68,63,59,67,62,58,98,98,96,30.21,30.13,1,0,4,1.15
2013-7-5,74,66,63,69,65,62,98,95,84,30.20,30.13,0,0,4,0.56
2013-7-6,78,67,64,71,66,63,98,95,78,30.17,30.06,0,0,3,0.36
2013-7-7,75,68,64,71,66,63,98,95,84,30.13,30.05,0,0,4,0.59
2013-7-8,79,68,63,71,65,62,98,93,74,30.17,30.08,0,0,2,0.11
2013-7-9,82,70,62,72,67,61,98,89,73,30.14,30.03,1,0,4,1.46
2013-7-10,79,67,63,73,63,-100,98,94,81,30.10,29.93,2,0,5,3.07
2013-7-11,77,68,63,72,66,62,99,95,79,29.95,29.86,0,0,6,1.18
2013-7-12,78,69,63,68,65,62,97,86,64,29.95,29.86,2,0,8,0.07
2013-7-13,74,65,60,68,63,59,97,92,80,30.09,29.94,0,0,5,0.09
2013-7-14,67,66,63,66,65,62,98,96,93,30.24,30.07,0,0,5,0.89
2013-7-15,79,68,64,71,66,63,98,91,69,30.31,30.24,0,0,5,0.11
2013-7-16,85,72,64,73,67,63,97,86,59,30.31,30.22,1,0,3,0.00
2013-7-17,83,72,65,73,68,63,96,88,65,30.25,30.13,1,0,5,0.09
2013-7-18,86,71,63,74,67,61,96,89,64,30.19,30.05,1,0,4,0.01
2013-7-19,80,70,65,73,67,63,97,91,76,30.10,29.93,2,0,7,0.94
2013-7-20,77,69,64,73,67,63,98,95,85,30.01,29.91,1,0,5,1.53
2013-7-21,74,68,64,71,66,63,98,95,89,29.99,29.92,3,0,13,0.46
2013-7-22,81,68,62,71,65,61,99,91,64,29.98,29.80,1,0,7,0.36
2013-7-23,80,70,62,71,65,61,98,86,63,29.88,29.77,1,0,8,0.38
2013-7-24,78,70,64,71,66,63,98,89,68,29.84,29.76,0,0,6,0.23
2013-7-25,78,68,60,69,63,59,98,86,61,30.01,29.83,1,0,8,0.22
2013-7-26,80,66,60,70,63,58,96,89,70,30.05,29.96,3,0,7,0.07
2013-7-27,75,68,63,70,66,61,98,92,81,30.01,29.85,0,0,2,0.38
2013-7-28,76,67,61,67,63,59,96,88,69,30.02,29.88,2,0,7,0.28
2013-7-29,78,65,57,65,59,54,94,84,58,30.19,30.01,1,0,5,0.00
2013-7-30,77,66,58,69,61,53,96,84,69,30.20,30.12,0,0,2,0.00
2013-7-31,70,65,59,68,63,58,98,95,82,30.16,29.95,0,0,4,0.28
2013-8-1,76,68,63,70,65,62,98,91,72,29.97,29.89,1,0,8,0.17
2013-8-2,77,68,61,70,64,60,97,89,74,30.02,29.93,1,0,4,0.14
2013-8-3,79,70,63,69,64,62,96,85,60,30.02,29.95,0,0,4,0.00
2013-8-4,76,69,63,68,64,59,96,85,70,30.03,29.94,5,0,11,0.01
2013-8-5,82,68,59,68,62,57,96,82,51,30.04,29.94,1,0,6,0.01
2013-8-6,81,69,63,72,65,60,94,86,69,29.99,29.92,0,0,3,0.01
2013-8-7,72,68,66,70,67,64,97,95,89,30.01,29.96,0,0,2,0.41
2013-8-8,76,68,64,73,67,63,98,95,87,30.03,29.96,0,0,1,0.24
2013-8-9,79,69,65,74,68,64,98,95,82,30.06,29.98,0,0,2,0.91
2013-8-10,78,69,64,75,67,63,98,95,87,30.10,30.03,0,0,6,0.55
2013-8-11,80,70,63,74,67,62,99,93,77,30.12,30.03,1,0,4,0.28
2013-8-12,81,68,64,75,66,63,98,94,77,30.09,29.96,0,0,5,0.63
2013-8-13,82,68,64,71,64,-100,98,89,59,29.96,29.82,1,0,8,0.12
2013-8-14,69,62,57,64,56,-100,96,85,71,30.04,29.86,1,0,6,0.13
2013-8-15,68,56,57,61,44,-100,95,83,75,30.11,30.03,0,0,5,0.00
2013-8-16,73,60,54,62,53,-100,94,83,64,30.12,30.05,0,0,4,0.00
2013-8-17,66,61,56,61,58,54,96,90,79,30.15,30.09,2,0,6,0.02
2013-8-18,71,62,59,67,60,-100,98,95,87,30.20,30.11,0,0,2,0.47
2013-8-19,68,61,61,66,52,-100,98,95,93,30.17,30.07,0,0,3,1.04
2013-8-20,76,65,61,70,62,-100,98,94,76,30.18,30.08,0,0,2,0.07
2013-8-21,72,67,63,69,65,61,98,95,88,30.20,30.10,0,0,3,0.04
2013-8-22,79,68,61,71,65,60,98,89,70,30.16,30.02,1,0,7,0.00
2013-8-23,77,68,62,69,64,61,96,89,68,30.06,29.97,2,0,7,0.01
2013-8-24,76,66,61,65,62,56,98,88,64,30.27,30.05,2,0,7,0.01
2013-8-25,74,62,56,63,55,-100,92,80,59,30.36,30.25,1,0,9,0.00
2013-8-26,76,63,56,64,59,54,96,86,63,30.32,30.14,1,0,6,0.00
2013-8-27,77,66,60,68,62,58,97,87,71,30.16,30.04,1,0,10,0.00
2013-8-28,80,74,68,71,68,66,93,84,72,30.02,29.94,0,0,5,0.00
2013-8-29,81,73,68,72,68,66,93,86,70,29.96,29.90,3,0,8,0.00
2013-8-30,77,70,66,72,68,64,95,92,83,29.99,29.90,0,0,2,0.18
2013-8-31,76,69,63,73,67,62,98,94,85,29.95,29.83,1,0,6,0.22
2013-9-1,80,69,64,73,65,-100,97,90,71,29.89,29.78,2,0,9,0.28
2013-9-2,77,68,62,71,65,61,98,92,75,29.91,29.81,0,0,4,0.28
2013-9-3,76,67,59,68,63,58,98,89,70,29.98,29.83,2,0,12,0.97
2013-9-4,76,67,58,70,63,56,96,88,72,30.10,29.98,1,0,4,0.05
2013-9-5,78,66,60,66,61,54,96,85,48,30.14,30.07,1,0,7,0.00
2013-9-6,77,66,58,65,60,54,93,82,63,30.16,30.06,0,0,3,0.00
2013-9-7,77,64,57,67,60,56,97,88,60,30.11,30.00,2,0,7,0.00
2013-9-8,76,67,62,67,62,-100,96,88,71,30.01,29.93,2,0,4,0.00
2013-9-9,80,69,62,69,65,61,96,86,61,30.11,29.99,0,0,4,0.00
2013-9-10,81,69,62,69,64,60,95,85,62,30.21,30.11,2,0,4,0.00
2013-9-11,79,69,62,71,64,57,93,87,69,30.20,30.07,0,0,3,0.00
2013-9-12,76,67,61,70,65,60,97,92,80,30.09,29.87,2,0,13,0.38
2013-9-13,69,62,54,62,58,51,97,87,59,29.93,29.82,3,0,12,0.25
2013-9-14,68,57,48,59,52,46,93,85,67,30.10,29.92,0,0,3,0.00
2013-9-15,72,58,53,63,54,-100,96,88,72,30.19,30.10,1,0,2,0.00
2013-9-16,74,63,57,63,58,54,96,85,61,30.16,30.09,1,0,5,0.00
2013-9-17,65,60,58,59,57,54,94,87,74,30.24,30.15,0,0,5,0.00
2013-9-18,58,56,53,55,53,50,94,91,89,30.23,30.18,0,0,1,0.01
2013-9-19,73,63,57,66,60,56,98,91,72,30.19,30.07,2,0,5,0.01
2013-9-20,74,65,59,68,62,58,96,91,77,30.08,29.90,0,0,0,0.00
2013-9-21,64,60,58,62,59,57,98,95,90,29.90,29.71,2,0,9,0.74
2013-9-22,66,57,51,57,51,-100,97,84,64,29.92,29.75,4,0,10,0.02
2013-9-23,70,58,52,62,54,49,96,88,71,30.03,29.91,1,0,3,0.00
2013-9-24,72,60,52,63,56,50,96,88,70,30.06,29.91,0,0,2,0.00
2013-9-25,60,59,57,59,58,56,98,97,94,29.91,29.83,0,0,2,0.90
2013-9-26,68,59,56,62,56,53,98,92,70,30.03,29.87,3,0,11,0.15
2013-9-27,71,58,51,61,54,49,96,89,57,30.16,30.03,1,0,7,0.00
2013-9-28,67,58,51,59,54,49,95,87,68,30.23,30.12,0,0,3,0.00
2013-9-29,67,57,51,58,52,-100,95,86,63,30.20,30.02,1,0,5,0.00
2013-9-30,67,58,52,59,55,50,96,90,70,30.08,29.99,0,0,3,0.00
2013-10-1,61,59,56,58,56,54,93,92,91,30.13,30.06,1,0,3,0.00
2013-10-2,72,62,55,62,57,53,95,85,60,30.17,30.08,2,0,6,0.00
2013-10-3,71,63,58,64,60,56,96,89,75,30.12,30.06,1,0,4,0.00
2013-10-4,75,64,58,66,60,56,95,88,66,30.15,30.08,1,0,6,0.00
2013-10-5,77,66,59,65,60,57,95,85,60,30.14,30.01,2,0,5,0.00
2013-10-6,76,65,59,64,60,57,95,84,61,30.03,29.84,3,0,8,0.00
2013-10-7,63,56,49,61,53,47,97,91,74,30.04,29.76,5,1,14,0.83
2013-10-8,64,53,45,52,47,42,93,82,60,30.21,30.04,3,0,10,0.01
2013-10-9,67,54,46,58,49,42,90,82,67,30.23,30.13,3,0,9,0.00
2013-10-10,65,56,50,55,51,48,96,82,60,30.14,30.03,6,1,15,0.00
2013-10-11,67,58,52,56,52,49,92,81,55,30.04,29.98,7,1,18,0.00
2013-10-12,68,60,54,59,55,51,92,83,67,30.09,29.99,4,0,12,0.00
2013-10-13,66,60,58,60,56,-100,95,88,79,30.19,30.09,3,0,9,0.05
2013-10-14,67,60,56,60,57,53,95,90,76,30.29,30.11,2,0,5,0.02
2013-10-15,65,58,53,59,54,51,95,88,74,30.16,30.03,4,0,9,0.00
2013-10-16,64,57,51,58,53,49,94,89,77,30.06,29.95,2,0,6,0.00
2013-10-17,70,59,51,62,56,48,98,91,72,29.97,29.81,3,0,9,0.03
2013-10-18,63,53,46,52,48,43,92,83,64,30.02,29.92,3,0,10,0.03
2013-10-19,60,52,47,53,48,43,93,84,59,29.97,29.85,3,0,9,0.00
2013-10-20,59,46,36,44,38,-100,92,77,47,30.10,29.96,3,0,8,0.00
2013-10-21,63,50,42,51,45,40,93,81,59,30.14,30.01,4,0,8,0.00
2013-10-22,61,54,48,51,47,44,90,80,62,30.02,29.81,4,0,8,0.00
2013-10-23,49,44,35,45,36,28,90,75,61,30.05,29.74,5,1,17,0.00
2013-10-24,49,39,32,36,32,28,88,76,55,30.22,30.05,5,1,21,0.01
2013-10-25,40,35,29,34,26,24,81,70,57,30.41,30.22,7,1,14,0.01
2013-10-26,52,39,27,39,30,24,90,72,49,30.40,30.14,3,0,7,0.01
2013-10-27,62,51,43,50,42,-100,88,75,61,30.15,30.06,4,0,13,0.00
2013-10-28,56,51,48,53,47,-100,97,92,87,30.27,30.12,1,0,4,0.07
2013-10-29,64,54,47,52,49,46,95,82,55,30.35,30.24,2,0,10,0.01
2013-10-30,70,59,52,57,52,48,91,79,57,30.27,30.15,4,0,12,0.01
2013-10-31,64,58,54,57,53,51,93,83,67,30.15,29.77,3,0,14,0.00
2013-11-1,71,60,51,58,53,45,95,79,39,29.76,29.61,6,1,17,0.10
2013-11-2,56,47,41,44,40,37,89,77,54,30.03,29.73,4,1,14,0.05
2013-11-3,51,43,38,38,34,-100,87,74,54,30.37,30.04,9,1,14,0.03
2013-11-4,52,43,38,35,33,31,82,68,47,30.50,30.37,4,1,12,0.00
2013-11-5,56,43,35,39,32,25,84,67,31,30.53,30.42,2,0,8,0.00
2013-11-6,63,52,44,52,47,39,94,84,65,30.43,30.12,6,0,11,0.00
2013-11-7,53,46,36,51,42,28,97,84,71,30.19,30.01,10,2,28,0.06
2013-11-8,46,38,32,29,25,18,79,60,35,30.36,30.19,6,2,22,0.02
2013-11-9,50,41,33,34,26,-100,76,59,46,30.37,30.27,2,0,5,0.00
2013-11-10,59,48,39,39,31,23,67,52,34,30.30,30.21,8,1,19,0.00
2013-11-11,58,43,35,33,27,18,70,53,32,30.33,30.19,3,0,6,0.00
2013-11-12,47,34,21,37,26,14,89,72,38,30.49,30.11,11,4,31,0.01
2013-11-13,38,27,19,21,15,9,80,63,34,30.65,30.49,8,1,22,0.01
2013-11-14,51,37,27,25,20,16,70,52,27,30.54,30.35,3,1,6,0.00
2013-11-15,46,41,34,43,32,17,97,72,45,30.36,30.22,2,0,5,0.00
2013-11-16,52,46,42,51,44,-100,98,95,93,30.27,30.19,0,0,3,0.01
2013-11-17,59,53,48,55,52,47,98,95,86,30.19,29.87,1,0,5,0.33
2013-11-18,57,51,41,56,40,30,98,68,43,30.05,29.84,7,2,22,0.09
2013-11-19,48,40,33,32,25,17,72,58,30,30.24,30.04,8,1,21,0.00
2013-11-20,47,38,31,30,26,24,80,63,43,30.44,30.24,3,0,12,0.00
2013-11-21,51,44,35,47,40,30,97,88,75,30.48,30.38,2,0,5,0.01
2013-11-22,62,53,47,55,50,46,98,92,76,30.40,30.14,2,0,7,0.05
2013-11-23,54,42,29,52,36,-100,92,82,68,30.25,30.10,9,2,24,0.01
2013-11-24,29,23,18,20,11,6,77,61,39,30.55,30.24,9,2,21,0.00
2013-11-25,33,26,20,21,14,8,69,60,48,30.57,30.35,0,0,3,0.00
2013-11-26,43,38,29,42,36,19,100,93,66,30.35,29.71,6,0,16,1.86
2013-11-27,40,26,19,38,23,13,92,87,78,30.27,29.69,10,3,30,0.14
2013-11-28,39,26,15,29,20,11,87,77,55,30.54,30.27,4,1,19,0.09
2013-11-29,47,34,27,32,26,20,79,70,51,30.61,30.52,3,0,5,0.01
2013-11-30,43,32,27,29,24,-100,84,75,55,30.60,30.39,1,0,4,0.00
2013-12-1,49,38,30,37,31,25,94,78,60,30.38,30.05,3,0,7,0.00
2013-12-2,49,42,37,41,37,33,90,81,69,30.06,29.83,2,0,5,0.00
2013-12-3,53,46,40,47,43,38,98,90,79,29.93,29.86,2,0,4,0.01
2013-12-4,58,50,45,53,48,44,97,91,81,30.04,29.93,3,0,6,0.00
2013-12-5,66,57,51,59,54,48,97,91,78,30.07,29.96,3,0,7,0.20
2013-12-6,69,61,48,61,57,47,98,89,67,30.02,29.85,9,2,22,0.61
2013-12-7,48,40,37,47,36,-100,97,89,81,30.35,29.98,6,1,14,0.03
2013-12-8,40,36,35,39,35,34,97,96,95,30.34,30.19,0,0,5,0.42
2013-12-9,47,44,35,46,43,34,98,98,97,30.19,30.03,1,0,9,0.43
2013-12-10,43,36,24,42,32,20,98,86,71,30.34,29.93,7,2,21,0.53
2013-12-11,43,31,23,26,20,13,86,66,29,30.50,30.34,4,0,13,0.01
2013-12-12,34,28,23,21,13,-2,81,57,21,30.46,30.37,5,1,14,0.00
2013-12-13,43,32,23,27,18,9,70,57,37,30.44,30.28,2,0,5,0.00
2013-12-14,40,37,35,39,32,-100,97,85,61,30.29,29.81,2,0,4,0.36
2013-12-15,43,33,25,42,30,23,98,88,82,30.17,29.80,7,2,21,0.06
2013-12-16,47,33,23,36,28,22,95,82,60,30.27,30.16,4,1,6,0.01
2013-12-17,55,41,34,36,31,22,83,68,44,30.21,29.98,9,2,19,0.01
2013-12-18,44,33,26,22,14,-2,74,49,15,30.34,30.13,6,2,19,0.01
2013-12-19,56,44,33,32,26,18,65,50,33,30.35,30.19,2,0,5,0.00
2013-12-20,61,48,40,48,34,24,80,58,43,30.22,30.10,5,1,15,0.00
2013-12-21,58,54,50,57,50,-100,97,90,80,30.11,29.89,2,0,10,0.07
2013-12-22,66,56,52,59,53,51,98,91,67,30.03,29.85,9,1,24,2.19
2013-12-23,52,43,32,51,41,27,97,91,84,30.24,29.97,6,1,16,0.63
2013-12-24,31,25,19,28,20,14,92,81,73,30.47,30.23,9,2,23,0.01
2013-12-25,34,24,18,22,17,12,81,73,54,30.55,30.41,2,0,5,0.00
2013-12-26,43,31,23,27,23,18,85,72,45,30.44,30.34,3,0,12,0.00
2013-12-27,44,34,28,31,26,23,86,74,55,30.51,30.39,3,1,4,0.00
2013-12-28,42,37,32,41,28,-100,96,71,49,30.46,30.13,2,0,6,0.34
2013-12-29,50,41,37,43,38,30,97,87,69,30.11,29.85,5,1,16,0.50
2013-12-30,41,37,31,36,33,30,96,87,77,30.18,30.00,5,0,17,0.01
2013-12-31,36,31,27,30,21,14,96,67,42,30.42,30.16,7,1,17,0.00
2014-1-1,41,33,28,29,22,18,78,66,52,30.41,30.17,2,0,4,0.00
2014-1-2,44,33,15,42,29,11,96,87,74,30.16,29.72,11,2,28,0.13